Maersk Damietta — A8OU4 — position and weather

sailwx.info

Track history (hours):
 
Tides and Currents Weather Stations Pressure Air Temp Water Temp Dewpoint Dewpoint Depression Visibility Wind Speed Wind Dir Waves Ship Positions

Maersk Damietta

Last reported at 2014-Nov-28 12:00 UTC. Time now 2014-Nov-29 07:10 UTC.
Position N 28°12' W 092°54'.

Length 293 m; draft 10.6 m.

Type: Ship (hazmat cat B). MMSI: 636091506.

Wind from 080 at 11 knots

Barometer 1028.0 mb
Air temperature 18.0 ° C
Visibility: greater than 27.0 NM
Dewpoint 14.6 ° C
Water temperature 22.0 ° C

Date/timePositionNaut miles runAvg speedWind from/ knotsBaromVisibWave heightAir tempDewpointWater temp
2014-Nov-28 12:00N 28°12' W 092°54'12416.6 080 / 111028.027.0 18.014.622.0
2014-Nov-28 04:32N 29°24' W 094°49'1211.9
2014-Nov-28 03:33N 29°34' W 094°55'8 7.8
2014-Nov-28 02:33N 29°41' W 094°60'0 0.5
2014-Nov-28 01:32N 29°41' W 095°00'0 0.0
2014-Nov-27 20:32N 29°41' W 095°00'0 0.0
2014-Nov-27 19:29N 29°41' W 095°00'0 0.0
2014-Nov-27 18:32N 29°41' W 095°00'0 0.0
2014-Nov-27 17:32N 29°41' W 095°00'0 0.0
2014-Nov-27 16:32N 29°41' W 095°00'0 0.0
2014-Nov-27 15:32N 29°41' W 095°00'0 0.0
2014-Nov-27 14:32N 29°41' W 095°00'0 0.0
2014-Nov-27 06:32N 29°41' W 095°00'0 0.0
2014-Nov-27 05:32N 29°41' W 095°00'0 0.0
2014-Nov-27 04:32N 29°41' W 095°00'0 0.0
2014-Nov-27 03:32N 29°41' W 095°00'0 0.0
2014-Nov-27 02:32N 29°41' W 095°00'0 0.0
2014-Nov-27 01:32N 29°41' W 095°00'0 0.0
2014-Nov-27 00:32N 29°41' W 095°00'0 0.0
2014-Nov-26 23:32N 29°41' W 095°00'0 0.0
2014-Nov-26 22:32N 29°41' W 095°00'0 0.0
2014-Nov-26 21:32N 29°41' W 095°00'0 0.0
2014-Nov-26 20:32N 29°41' W 095°00'0 0.0
2014-Nov-26 19:32N 29°41' W 095°00'0 0.0
2014-Nov-26 18:32N 29°41' W 095°00'0 0.0
2014-Nov-26 17:32N 29°41' W 095°00'0 0.0
2014-Nov-26 16:32N 29°41' W 095°00'0 0.0
2014-Nov-26 15:32N 29°41' W 095°00'0 0.0
2014-Nov-26 14:32N 29°41' W 095°00'0 0.0
2014-Nov-26 13:32N 29°41' W 095°00'0 0.0
2014-Nov-26 12:33N 29°41' W 095°00'1 1.3
2014-Nov-26 11:33N 29°41' W 094°59'9 9.3
2014-Nov-26 10:33N 29°33' W 094°54'1111.0
2014-Nov-26 09:32N 29°22' W 094°48'39418.3
2014-Nov-25 12:00N 26°12' W 088°18'24220.2 290 / 151013.010.8 27.024.429.0
2014-Nov-25 00:00N 24°36' W 084°12'13819.7 160 / 121014.0 5.4 28.025.927.0
2014-Nov-24 17:00N 24°18' W 081°42'9719.4 180 / 101017.010.8 29.028.327.0
2014-Nov-24 12:00N 25°00' W 080°06'4116.8 160 / 161014.027.0 28.026.628.0
2014-Nov-24 09:32N 25°41' W 079°57'1616.6
2014-Nov-24 08:33N 25°57' W 079°56'1616.3
2014-Nov-24 07:33N 26°13' W 079°55'1616.1
2014-Nov-24 06:33N 26°29' W 079°53'1615.9
2014-Nov-24 05:33N 26°45' W 079°52'1616.0
2014-Nov-24 04:33N 27°01' W 079°51'6514.3
2014-Nov-24 00:00N 28°06' W 079°48'9616.0 170 / 251014.010.8 27.026.428.0
2014-Nov-23 18:00N 29°42' W 079°54'15513.4 170 / 331014.0 5.4 27.022.628.0
2014-Nov-23 06:25N 32°06' W 080°60'7 7.7
2014-Nov-23 05:33N 32°07' W 081°08'1 0.1
2014-Nov-22 11:08N 32°08' W 081°08'2 3.2
2014-Nov-22 10:33N 32°06' W 081°07'47011.1
2014-Nov-20 16:00N 37°36' W 074°18'17012.4 210 / 261017.010.8 14.0 5.617.0
2014-Nov-20 02:19N 40°24' W 073°49'7 8.4
2014-Nov-20 01:32N 40°29' W 073°54'1212.0
2014-Nov-20 00:34N 40°39' W 074°04'4 4.1
2014-Nov-19 23:33N 40°40' W 074°09'0 0.0
2014-Nov-19 22:33N 40°40' W 074°09'0 0.0
2014-Nov-19 21:33N 40°40' W 074°09'0 0.0
2014-Nov-19 20:33N 40°40' W 074°09'0 0.0
2014-Nov-19 19:33N 40°40' W 074°09'0 0.0
2014-Nov-19 18:33N 40°40' W 074°09'0 0.0
2014-Nov-19 17:27N 40°40' W 074°09'2656.9
2014-Nov-19 17:00N 40°24' W 073°42'2657.5 300 / 9
2014-Nov-19 16:33N 40°40' W 074°09'0 0.0
2014-Nov-19 15:33N 40°40' W 074°09'0 0.0
2014-Nov-19 14:33N 40°40' W 074°09'0 0.0
2014-Nov-19 13:34N 40°40' W 074°09'1 0.6
2014-Nov-19 12:33N 40°39' W 074°09'5 5.5
2014-Nov-19 11:33N 40°36' W 074°03'1111.5
2014-Nov-19 10:33N 40°28' W 073°52'7 6.8
2014-Nov-19 09:30N 40°27' W 073°43'3612.2
2014-Nov-19 06:32N 40°30' W 072°55'1414.6
2014-Nov-19 05:33N 40°30' W 072°36'1616.4
2014-Nov-19 04:34N 40°31' W 072°15'1918.6
2014-Nov-19 03:34N 40°31' W 071°50'1918.5
2014-Nov-19 02:33N 40°32' W 071°26'1818.3
2014-Nov-19 01:33N 40°32' W 071°02'5417.6
2014-Nov-18 22:30N 40°33' W 069°51'  
Track history (hours):
 
Tides and Currents Weather Stations Pressure Air Temp Water Temp Dewpoint Dewpoint Depression Visibility Wind Speed Wind Dir Waves Ship Positions

Maersk Damietta

Last reported at 2014-Nov-28 12:00 UTC. Time now 2014-Nov-29 07:10 UTC.
Position N 28°12' W 092°54'.

Length 293 m; draft 10.6 m.

Type: Ship (hazmat cat B). MMSI: 636091506.

Wind from 080 at 11 knots

Barometer 1028.0 mb
Air temperature 18.0 ° C
Visibility: greater than 27.0 NM
Dewpoint 14.6 ° C
Water temperature 22.0 ° C

Date/timePositionNaut miles runAvg speedWind from/ knotsBaromVisibWave heightAir tempDewpointWater temp
2014-Nov-28 12:00N 28°12' W 092°54'12416.6 080 / 111028.027.0 18.014.622.0
2014-Nov-28 04:32N 29°24' W 094°49'1211.9
2014-Nov-28 03:33N 29°34' W 094°55'8 7.8
2014-Nov-28 02:33N 29°41' W 094°60'0 0.5
2014-Nov-28 01:32N 29°41' W 095°00'0 0.0
2014-Nov-27 20:32N 29°41' W 095°00'0 0.0
2014-Nov-27 19:29N 29°41' W 095°00'0 0.0
2014-Nov-27 18:32N 29°41' W 095°00'0 0.0
2014-Nov-27 17:32N 29°41' W 095°00'0 0.0
2014-Nov-27 16:32N 29°41' W 095°00'0 0.0
2014-Nov-27 15:32N 29°41' W 095°00'0 0.0
2014-Nov-27 14:32N 29°41' W 095°00'0 0.0
2014-Nov-27 06:32N 29°41' W 095°00'0 0.0
2014-Nov-27 05:32N 29°41' W 095°00'0 0.0
2014-Nov-27 04:32N 29°41' W 095°00'0 0.0
2014-Nov-27 03:32N 29°41' W 095°00'0 0.0
2014-Nov-27 02:32N 29°41' W 095°00'0 0.0
2014-Nov-27 01:32N 29°41' W 095°00'0 0.0
2014-Nov-27 00:32N 29°41' W 095°00'0 0.0
2014-Nov-26 23:32N 29°41' W 095°00'0 0.0
2014-Nov-26 22:32N 29°41' W 095°00'0 0.0
2014-Nov-26 21:32N 29°41' W 095°00'0 0.0
2014-Nov-26 20:32N 29°41' W 095°00'0 0.0
2014-Nov-26 19:32N 29°41' W 095°00'0 0.0
2014-Nov-26 18:32N 29°41' W 095°00'0 0.0
2014-Nov-26 17:32N 29°41' W 095°00'0 0.0
2014-Nov-26 16:32N 29°41' W 095°00'0 0.0
2014-Nov-26 15:32N 29°41' W 095°00'0 0.0
2014-Nov-26 14:32N 29°41' W 095°00'0 0.0
2014-Nov-26 13:32N 29°41' W 095°00'0 0.0
2014-Nov-26 12:33N 29°41' W 095°00'1 1.3
2014-Nov-26 11:33N 29°41' W 094°59'9 9.3
2014-Nov-26 10:33N 29°33' W 094°54'1111.0
2014-Nov-26 09:32N 29°22' W 094°48'39418.3
2014-Nov-25 12:00N 26°12' W 088°18'24220.2 290 / 151013.010.8 27.024.429.0
2014-Nov-25 00:00N 24°36' W 084°12'13819.7 160 / 121014.0 5.4 28.025.927.0
2014-Nov-24 17:00N 24°18' W 081°42'9719.4 180 / 101017.010.8 29.028.327.0
2014-Nov-24 12:00N 25°00' W 080°06'4116.8 160 / 161014.027.0 28.026.628.0
2014-Nov-24 09:32N 25°41' W 079°57'1616.6
2014-Nov-24 08:33N 25°57' W 079°56'1616.3
2014-Nov-24 07:33N 26°13' W 079°55'1616.1
2014-Nov-24 06:33N 26°29' W 079°53'1615.9
2014-Nov-24 05:33N 26°45' W 079°52'1616.0
2014-Nov-24 04:33N 27°01' W 079°51'6514.3
2014-Nov-24 00:00N 28°06' W 079°48'9616.0 170 / 251014.010.8 27.026.428.0
2014-Nov-23 18:00N 29°42' W 079°54'15513.4 170 / 331014.0 5.4 27.022.628.0
2014-Nov-23 06:25N 32°06' W 080°60'7 7.7
2014-Nov-23 05:33N 32°07' W 081°08'1 0.1
2014-Nov-22 11:08N 32°08' W 081°08'2 3.2
2014-Nov-22 10:33N 32°06' W 081°07'47011.1
2014-Nov-20 16:00N 37°36' W 074°18'17012.4 210 / 261017.010.8 14.0 5.617.0
2014-Nov-20 02:19N 40°24' W 073°49'7 8.4
2014-Nov-20 01:32N 40°29' W 073°54'1212.0
2014-Nov-20 00:34N 40°39' W 074°04'4 4.1
2014-Nov-19 23:33N 40°40' W 074°09'0 0.0
2014-Nov-19 22:33N 40°40' W 074°09'0 0.0
2014-Nov-19 21:33N 40°40' W 074°09'0 0.0
2014-Nov-19 20:33N 40°40' W 074°09'0 0.0
2014-Nov-19 19:33N 40°40' W 074°09'0 0.0
2014-Nov-19 18:33N 40°40' W 074°09'0 0.0
2014-Nov-19 17:27N 40°40' W 074°09'2656.9
2014-Nov-19 17:00N 40°24' W 073°42'2657.5 300 / 9
2014-Nov-19 16:33N 40°40' W 074°09'0 0.0
2014-Nov-19 15:33N 40°40' W 074°09'0 0.0
2014-Nov-19 14:33N 40°40' W 074°09'0 0.0
2014-Nov-19 13:34N 40°40' W 074°09'1 0.6
2014-Nov-19 12:33N 40°39' W 074°09'5 5.5
2014-Nov-19 11:33N 40°36' W 074°03'1111.5
2014-Nov-19 10:33N 40°28' W 073°52'7 6.8
2014-Nov-19 09:30N 40°27' W 073°43'3612.2
2014-Nov-19 06:32N 40°30' W 072°55'1414.6
2014-Nov-19 05:33N 40°30' W 072°36'1616.4
2014-Nov-19 04:34N 40°31' W 072°15'1918.6
2014-Nov-19 03:34N 40°31' W 071°50'1918.5
2014-Nov-19 02:33N 40°32' W 071°26'1818.3
2014-Nov-19 01:33N 40°32' W 071°02'5417.6
2014-Nov-18 22:30N 40°33' W 069°51'  

Dump ship's entire track history